Time;durP1;ratioP1;P1;durP2;ratioP2;P2;SDS_P1;SDS_P2;PMS_P1;PMS_P2;Temp;Humidity;BMP_temperature;BMP_pressure;BME280_temperature;BME280_humidity;BME280_pressure;Samples;Min_cycle;Max_cycle;Signal;HPM_P1;HPM_P2
2021/10/16 00:00:41;;;;;;;3.92;2.03;;;;;;;;;;5033749;28;20095;-72
2021/10/16 00:03:09;;;;;;;3.60;1.70;;;;;;;;;;5032052;28;20486;-71
2021/10/16 00:05:36;;;;;;;7.10;2.42;;;;;;;;;;5033789;28;20405;-71
2021/10/16 00:08:04;;;;;;;4.80;2.40;;;;;;;;;;5033910;28;20120;-70
2021/10/16 00:10:31;;;;;;;4.75;2.30;;;;;;;;;;5033785;28;20041;-70
2021/10/16 00:12:59;;;;;;;6.35;2.92;;;;;;;;;;5033745;28;20058;-70
2021/10/16 00:15:27;;;;;;;8.20;2.90;;;;;;;;;;5033074;28;20045;-72
2021/10/16 00:17:54;;;;;;;7.00;2.67;;;;;;;;;;5033108;28;20077;-70
2021/10/16 00:20:21;;;;;;;8.80;2.83;;;;;;;;;;5033658;28;20454;-70
2021/10/16 00:22:52;;;;;;;8.02;3.10;;;;;;;;;;5033297;28;20099;-72
2021/10/16 00:25:20;;;;;;;6.97;2.92;;;;;;;;;;5032948;28;20060;-73
2021/10/16 00:27:47;;;;;;;6.03;3.30;;;;;;;;;;5031932;28;20490;-72
2021/10/16 00:30:15;;;;;;;7.47;3.10;;;;;;;;;;5031203;28;20068;-72
2021/10/16 00:32:42;;;;;;;8.00;3.03;;;;;;;;;;5031973;28;20041;-70
2021/10/16 00:35:10;;;;;;;8.07;2.90;;;;;;;;;;5032110;28;20136;-73
2021/10/16 00:37:37;;;;;;;7.03;2.85;;;;;;;;;;5031925;28;20042;-73
2021/10/16 00:40:08;;;;;;;9.05;2.88;;;;;;;;;;5033255;28;20049;-70
2021/10/16 00:42:48;;;;;;;12.50;3.78;;;;;;;;;;5031619;28;20049;-70
2021/10/16 00:45:21;;;;;;;9.52;3.53;;;;;;;;;;5030956;28;20048;-72
2021/10/16 00:47:49;;;;;;;8.60;2.55;;;;;;;;;;5032643;28;20509;-73
2021/10/16 00:50:19;;;;;;;6.05;3.10;;;;;;;;;;5032697;28;20095;-71
2021/10/16 00:52:47;;;;;;;7.65;2.65;;;;;;;;;;5031537;28;20049;-70
2021/10/16 00:55:15;;;;;;;5.93;2.90;;;;;;;;;;5032798;28;20048;-72
2021/10/16 00:57:43;;;;;;;6.22;2.50;;;;;;;;;;5015580;28;20053;-70
2021/10/16 01:00:11;;;;;;;5.10;2.50;;;;;;;;;;5031193;28;20140;-72
2021/10/16 01:02:39;;;;;;;5.72;2.40;;;;;;;;;;5032947;28;20041;-73
2021/10/16 01:05:09;;;;;;;4.43;2.05;;;;;;;;;;5032420;28;20048;-70
2021/10/16 01:07:37;;;;;;;5.68;1.77;;;;;;;;;;5031284;28;20529;-74
2021/10/16 01:10:05;;;;;;;1.95;1.58;;;;;;;;;;5031243;28;20120;-72
2021/10/16 01:12:33;;;;;;;3.65;1.52;;;;;;;;;;5009164;28;20132;-72
2021/10/16 01:15:04;;;;;;;6.10;1.85;;;;;;;;;;5008215;28;20077;-73
2021/10/16 01:17:36;;;;;;;1.90;1.50;;;;;;;;;;5011866;28;20042;-72
2021/10/16 01:20:06;;;;;;;5.45;2.58;;;;;;;;;;5011433;28;20050;-72
2021/10/16 01:22:34;;;;;;;9.27;2.00;;;;;;;;;;5011657;28;20053;-72
2021/10/16 01:25:02;;;;;;;1.58;1.40;;;;;;;;;;5013259;28;20122;-70
2021/10/16 01:27:29;;;;;;;1.90;1.40;;;;;;;;;;5012751;28;20042;-73
2021/10/16 01:29:57;;;;;;;3.03;1.70;;;;;;;;;;5011516;28;20050;-73
2021/10/16 01:32:24;;;;;;;3.47;1.48;;;;;;;;;;5011375;28;20446;-73
2021/10/16 01:34:52;;;;;;;4.68;2.10;;;;;;;;;;5012329;28;20104;-71
2021/10/16 01:37:19;;;;;;;4.80;2.75;;;;;;;;;;5013399;28;20382;-72
2021/10/16 01:39:47;;;;;;;5.68;2.70;;;;;;;;;;5011860;28;20077;-70
2021/10/16 01:42:15;;;;;;;4.85;2.17;;;;;;;;;;5011607;28;20052;-71
2021/10/16 01:44:53;;;;;;;4.80;1.92;;;;;;;;;;5011299;28;20057;-72
2021/10/16 01:47:20;;;;;;;3.67;2.08;;;;;;;;;;5011758;28;20051;-71
2021/10/16 01:49:48;;;;;;;5.30;2.50;;;;;;;;;;5013007;28;20048;-70
2021/10/16 01:52:16;;;;;;;4.03;1.90;;;;;;;;;;5011319;28;20049;-72
2021/10/16 01:54:46;;;;;;;4.70;1.77;;;;;;;;;;5011575;28;20060;-72
2021/10/16 01:57:14;;;;;;;5.18;2.22;;;;;;;;;;5010931;28;20096;-73
2021/10/16 01:59:51;;;;;;;2.55;1.73;;;;;;;;;;5012267;28;20073;-70
2021/10/16 02:02:40;;;;;;;2.10;1.58;;;;;;;;;;5016328;28;20046;-72
2021/10/16 02:05:19;;;;;;;2.90;1.90;;;;;;;;;;5016746;28;20162;-73
2021/10/16 02:08:02;;;;;;;2.90;1.80;;;;;;;;;;5015000;28;20108;-73
2021/10/16 02:10:30;;;;;;;2.83;1.83;;;;;;;;;;5014436;28;20477;-74
2021/10/16 02:12:58;;;;;;;7.07;2.00;;;;;;;;;;5016082;28;20042;-71
2021/10/16 02:15:30;;;;;;;2.95;1.75;;;;;;;;;;5015269;28;20422;-72
2021/10/16 02:18:18;;;;;;;2.45;2.17;;;;;;;;;;5016168;28;20050;-71
2021/10/16 02:20:45;;;;;;;4.78;2.40;;;;;;;;;;5014775;28;20053;-73
2021/10/16 02:23:14;;;;;;;5.20;2.72;;;;;;;;;;4998513;28;20050;-74
2021/10/16 02:25:42;;;;;;;4.75;2.33;;;;;;;;;;5014438;28;20065;-72
2021/10/16 02:28:10;;;;;;;4.95;2.38;;;;;;;;;;5015757;28;20514;-72
2021/10/16 02:30:40;;;;;;;3.00;2.45;;;;;;;;;;5014424;28;20546;-72
2021/10/16 02:33:08;;;;;;;3.83;2.10;;;;;;;;;;5014278;28;20494;-73
2021/10/16 02:35:35;;;;;;;4.28;2.10;;;;;;;;;;5014610;28;20053;-70
2021/10/16 02:38:03;;;;;;;3.35;1.90;;;;;;;;;;4998851;28;20077;-74
2021/10/16 02:40:31;;;;;;;4.15;2.00;;;;;;;;;;5013895;28;20061;-70
2021/10/16 02:43:01;;;;;;;5.13;2.35;;;;;;;;;;5014338;28;20077;-73
2021/10/16 02:45:28;;;;;;;7.30;2.60;;;;;;;;;;5014424;28;20522;-72
2021/10/16 02:47:56;;;;;;;4.35;2.05;;;;;;;;;;5014288;28;20134;-70
2021/10/16 02:50:24;;;;;;;2.17;1.70;;;;;;;;;;5013831;28;20074;-73
2021/10/16 02:52:51;;;;;;;3.15;1.50;;;;;;;;;;5013827;28;20419;-71
2021/10/16 02:55:19;;;;;;;4.05;2.00;;;;;;;;;;5013610;28;20418;-70
2021/10/16 02:57:55;;;;;;;4.32;1.50;;;;;;;;;;5013743;28;20045;-72
2021/10/16 03:00:25;;;;;;;3.35;1.70;;;;;;;;;;5015148;28;20072;-72
2021/10/16 03:02:58;;;;;;;1.65;1.55;;;;;;;;;;5013750;28;20053;-72
2021/10/16 03:05:25;;;;;;;8.05;2.20;;;;;;;;;;5015270;28;20569;-70
2021/10/16 03:07:53;;;;;;;3.20;2.28;;;;;;;;;;5014161;28;20049;-71
2021/10/16 03:10:21;;;;;;;4.15;1.80;;;;;;;;;;5014394;28;20057;-70
2021/10/16 03:12:50;;;;;;;4.53;1.92;;;;;;;;;;5012762;28;20522;-73
2021/10/16 03:15:21;;;;;;;2.60;2.08;;;;;;;;;;5013619;28;20056;-72
2021/10/16 03:17:48;;;;;;;4.82;2.72;;;;;;;;;;5013511;28;20068;-72
2021/10/16 03:20:16;;;;;;;7.47;2.90;;;;;;;;;;5013682;28;20193;-72
2021/10/16 03:22:43;;;;;;;7.75;2.55;;;;;;;;;;5014553;28;20125;-72
2021/10/16 03:25:11;;;;;;;7.57;2.80;;;;;;;;;;5012707;28;20046;-70
2021/10/16 03:27:39;;;;;;;3.55;2.17;;;;;;;;;;5013244;28;20053;-70
2021/10/16 03:30:06;;;;;;;3.03;1.88;;;;;;;;;;5013205;28;20042;-70
2021/10/16 03:32:34;;;;;;;3.55;1.85;;;;;;;;;;5013290;28;20483;-72
2021/10/16 03:35:02;;;;;;;3.28;1.77;;;;;;;;;;5012971;28;20057;-72
2021/10/16 03:37:29;;;;;;;3.95;1.90;;;;;;;;;;5013185;28;20128;-73
2021/10/16 03:39:57;;;;;;;3.38;1.98;;;;;;;;;;5012814;28;20050;-73
2021/10/16 03:42:24;;;;;;;4.05;2.05;;;;;;;;;;5014645;28;20046;-74
2021/10/16 03:45:02;;;;;;;2.92;1.75;;;;;;;;;;5011434;28;20049;-69
2021/10/16 03:47:30;;;;;;;5.80;3.03;;;;;;;;;;5021280;28;20140;-70
2021/10/16 03:49:57;;;;;;;4.95;2.20;;;;;;;;;;5022391;28;20133;-72
2021/10/16 03:52:26;;;;;;;3.40;3.05;;;;;;;;;;5031324;28;20115;-70
2021/10/16 03:54:54;;;;;;;9.93;2.40;;;;;;;;;;5016822;28;20045;-73
2021/10/16 03:57:21;;;;;;;3.28;2.65;;;;;;;;;;5016876;28;20099;-72
2021/10/16 03:59:49;;;;;;;4.70;2.42;;;;;;;;;;5032578;28;20106;-73
2021/10/16 04:02:18;;;;;;;4.68;2.70;;;;;;;;;;5032495;28;20046;-72
2021/10/16 04:04:46;;;;;;;4.53;2.20;;;;;;;;;;5032688;28;20081;-70
2021/10/16 04:07:14;;;;;;;3.17;2.40;;;;;;;;;;5032861;28;20046;-72
2021/10/16 04:09:47;;;;;;;12.93;10.68;;;;;;;;;;5032586;28;20080;-70
2021/10/16 04:12:15;;;;;;;4.75;3.63;;;;;;;;;;5032595;28;20045;-73
2021/10/16 04:14:43;;;;;;;6.57;3.65;;;;;;;;;;5015930;28;20132;-72
2021/10/16 04:17:14;;;;;;;9.93;2.35;;;;;;;;;;5033056;28;20053;-73
2021/10/16 04:19:42;;;;;;;3.00;1.90;;;;;;;;;;5032299;28;20136;-70
2021/10/16 04:22:11;;;;;;;6.15;2.15;;;;;;;;;;5033446;28;20060;-69
2021/10/16 04:24:38;;;;;;;5.93;2.35;;;;;;;;;;5032437;28;20049;-71
2021/10/16 04:27:07;;;;;;;4.32;1.83;;;;;;;;;;5032547;28;20072;-74
2021/10/16 04:29:39;;;;;;;4.32;2.20;;;;;;;;;;5032237;28;20042;-73
2021/10/16 04:32:09;;;;;;;5.85;2.47;;;;;;;;;;5032019;28;20053;-73
2021/10/16 04:34:36;;;;;;;4.72;2.47;;;;;;;;;;5032331;28;20558;-70
2021/10/16 04:37:04;;;;;;;4.85;2.30;;;;;;;;;;5032032;28;20482;-74
2021/10/16 04:39:32;;;;;;;4.38;1.75;;;;;;;;;;5032453;28;20069;-73
2021/10/16 04:41:59;;;;;;;3.38;1.88;;;;;;;;;;5031780;28;20455;-72
2021/10/16 04:44:27;;;;;;;5.75;1.83;;;;;;;;;;5031993;28;20060;-70
2021/10/16 04:46:55;;;;;;;2.83;1.38;;;;;;;;;;5031769;28;20136;-72
2021/10/16 04:49:23;;;;;;;6.28;1.77;;;;;;;;;;5015990;28;20047;-70
2021/10/16 04:51:51;;;;;;;6.38;2.80;;;;;;;;;;5031961;28;20072;-72
2021/10/16 04:54:20;;;;;;;3.17;2.20;;;;;;;;;;5032322;28;20065;-71
2021/10/16 04:56:48;;;;;;;4.85;1.83;;;;;;;;;;5031978;28;20092;-73
2021/10/16 04:59:16;;;;;;;3.55;1.63;;;;;;;;;;5031487;28;20049;-71
2021/10/16 05:01:44;;;;;;;4.90;1.83;;;;;;;;;;5031597;28;20103;-73
2021/10/16 05:04:12;;;;;;;3.30;1.50;;;;;;;;;;5031706;28;20049;-72
2021/10/16 05:06:39;;;;;;;5.38;1.65;;;;;;;;;;5031575;28;20065;-70
2021/10/16 05:09:08;;;;;;;7.38;2.15;;;;;;;;;;5032109;28;20088;-72
2021/10/16 05:11:39;;;;;;;3.83;1.67;;;;;;;;;;5031535;28;20069;-73
2021/10/16 05:14:07;;;;;;;5.63;2.05;;;;;;;;;;5031146;28;20041;-72
2021/10/16 05:16:35;;;;;;;2.33;1.77;;;;;;;;;;5031404;28;20140;-73
2021/10/16 05:19:02;;;;;;;4.43;2.00;;;;;;;;;;5015180;28;20049;-73
2021/10/16 05:21:33;;;;;;;10.30;7.63;;;;;;;;;;5031386;28;20503;-70
2021/10/16 05:24:00;;;;;;;3.88;2.08;;;;;;;;;;5032436;28;20053;-70
2021/10/16 05:26:29;;;;;;;4.28;1.50;;;;;;;;;;5031404;28;20041;-74
2021/10/16 05:28:56;;;;;;;2.20;1.83;;;;;;;;;;5031187;28;20441;-70
2021/10/16 05:31:23;;;;;;;6.03;2.00;;;;;;;;;;5032311;28;20056;-70
2021/10/16 05:33:52;;;;;;;3.15;1.92;;;;;;;;;;5030750;28;20046;-73
2021/10/16 05:36:21;;;;;;;6.95;2.90;;;;;;;;;;5034054;28;20050;-73
2021/10/16 05:38:49;;;;;;;5.70;2.78;;;;;;;;;;5036824;28;20041;-72
2021/10/16 05:41:17;;;;;;;9.02;2.83;;;;;;;;;;5035261;28;20072;-71
2021/10/16 05:43:47;;;;;;;4.28;2.50;;;;;;;;;;5035306;28;20045;-72
2021/10/16 05:46:15;;;;;;;4.60;2.50;;;;;;;;;;5035068;28;20487;-73
2021/10/16 05:48:47;;;;;;;8.43;5.18;;;;;;;;;;5035088;28;20042;-68
2021/10/16 05:51:15;;;;;;;10.93;4.65;;;;;;;;;;5035561;28;20386;-68
2021/10/16 05:53:42;;;;;;;7.47;3.72;;;;;;;;;;5034715;28;20041;-71
2021/10/16 05:56:10;;;;;;;7.53;3.40;;;;;;;;;;5036604;28;20046;-71
2021/10/16 05:58:38;;;;;;;5.53;2.85;;;;;;;;;;5034656;28;20128;-69
2021/10/16 06:01:06;;;;;;;3.03;2.30;;;;;;;;;;5034320;28;20049;-72
2021/10/16 06:03:42;;;;;;;11.20;2.97;;;;;;;;;;5019708;28;20572;-70
2021/10/16 06:06:10;;;;;;;4.22;2.00;;;;;;;;;;5035074;28;20045;-71
2021/10/16 06:08:37;;;;;;;7.40;2.60;;;;;;;;;;5034920;28;20045;-69
2021/10/16 06:11:05;;;;;;;5.15;2.72;;;;;;;;;;5034985;28;20096;-72
2021/10/16 06:13:33;;;;;;;7.88;3.67;;;;;;;;;;5035052;28;20076;-69
2021/10/16 06:16:00;;;;;;;15.02;4.18;;;;;;;;;;5034850;28;20069;-72
2021/10/16 06:18:28;;;;;;;9.82;4.18;;;;;;;;;;5034456;28;20103;-70
2021/10/16 06:20:57;;;;;;;8.85;3.80;;;;;;;;;;5034725;28;20064;-69
2021/10/16 06:23:25;;;;;;;8.32;3.67;;;;;;;;;;5034507;28;20041;-71
2021/10/16 06:25:52;;;;;;;5.88;2.97;;;;;;;;;;5033829;28;20078;-71
2021/10/16 06:28:20;;;;;;;8.18;2.47;;;;;;;;;;5035051;28;20128;-71
2021/10/16 06:30:47;;;;;;;7.47;2.40;;;;;;;;;;5034247;28;20045;-76
2021/10/16 06:33:15;;;;;;;3.90;2.35;;;;;;;;;;5035613;28;20057;-72
2021/10/16 06:35:44;;;;;;;8.98;2.40;;;;;;;;;;5034230;28;20132;-72
2021/10/16 06:38:21;;;;;;;5.10;2.35;;;;;;;;;;5034003;28;20041;-72
2021/10/16 06:40:50;;;;;;;7.07;2.70;;;;;;;;;;5034017;28;20056;-72
2021/10/16 06:43:40;;;;;;;5.80;2.58;;;;;;;;;;5035388;28;20068;-75
2021/10/16 06:46:27;;;;;;;7.57;2.50;;;;;;;;;;5032829;28;20057;-75
2021/10/16 06:49:13;;;;;;;3.38;2.00;;;;;;;;;;5034127;28;20115;-72
2021/10/16 06:51:42;;;;;;;4.40;1.75;;;;;;;;;;5034293;28;20050;-75
2021/10/16 06:54:12;;;;;;;4.45;2.10;;;;;;;;;;5034161;28;20064;-73
2021/10/16 06:56:45;;;;;;;5.70;2.33;;;;;;;;;;5034458;28;20121;-71
2021/10/16 06:59:13;;;;;;;12.98;3.20;;;;;;;;;;5033539;28;20358;-71
2021/10/16 07:01:41;;;;;;;3.83;2.10;;;;;;;;;;5033735;28;20050;-70
2021/10/16 07:04:28;;;;;;;6.28;2.47;;;;;;;;;;5033685;28;20546;-73
2021/10/16 07:07:01;;;;;;;7.28;2.25;;;;;;;;;;5034106;28;20064;-75
2021/10/16 07:09:41;;;;;;;5.55;1.98;;;;;;;;;;5035031;28;20099;-71
2021/10/16 07:12:09;;;;;;;4.53;1.92;;;;;;;;;;5035121;28;20045;-72
2021/10/16 07:14:37;;;;;;;5.88;2.92;;;;;;;;;;5034805;28;20494;-71
2021/10/16 07:17:08;;;;;;;6.03;2.10;;;;;;;;;;5033004;28;20041;-68
2021/10/16 07:19:35;;;;;;;7.22;2.70;;;;;;;;;;5034626;28;20049;-71
2021/10/16 07:22:03;;;;;;;5.05;3.00;;;;;;;;;;5034441;28;20069;-68
2021/10/16 07:24:30;;;;;;;4.43;2.75;;;;;;;;;;5034743;28;20049;-74
2021/10/16 07:26:58;;;;;;;7.80;2.70;;;;;;;;;;5034348;28;20044;-74
2021/10/16 07:29:25;;;;;;;7.30;2.75;;;;;;;;;;5032995;28;20060;-71
2021/10/16 07:31:53;;;;;;;6.55;2.50;;;;;;;;;;5034199;28;20046;-70
2021/10/16 07:34:21;;;;;;;3.30;2.22;;;;;;;;;;5034699;28;20047;-71
2021/10/16 07:36:49;;;;;;;11.38;2.55;;;;;;;;;;5034262;28;20120;-71
2021/10/16 07:39:16;;;;;;;6.85;2.85;;;;;;;;;;5034536;28;20049;-71
2021/10/16 07:41:46;;;;;;;8.10;2.70;;;;;;;;;;5034190;28;20045;-74
2021/10/16 07:44:15;;;;;;;6.60;3.40;;;;;;;;;;5034576;28;20429;-71
2021/10/16 07:46:43;;;;;;;4.57;2.47;;;;;;;;;;5017310;28;20348;-72
2021/10/16 07:49:11;;;;;;;6.60;2.50;;;;;;;;;;5014649;28;20471;-68
2021/10/16 07:51:38;;;;;;;5.05;2.45;;;;;;;;;;5014720;28;20049;-69
2021/10/16 07:54:06;;;;;;;3.40;2.30;;;;;;;;;;5014934;28;20380;-73
2021/10/16 07:56:33;;;;;;;6.55;2.53;;;;;;;;;;5014449;28;20056;-72
2021/10/16 07:59:00;;;;;;;5.00;2.20;;;;;;;;;;5013575;28;20133;-72
2021/10/16 08:01:33;;;;;;;7.05;2.30;;;;;;;;;;5014019;28;20038;-72
2021/10/16 08:04:00;;;;;;;5.35;2.67;;;;;;;;;;5014212;28;20066;-71
2021/10/16 08:06:28;;;;;;;3.35;2.05;;;;;;;;;;5014157;28;20038;-71
2021/10/16 08:08:57;;;;;;;3.25;2.00;;;;;;;;;;5012992;28;20053;-71
2021/10/16 08:11:50;;;;;;;;;;;;;;;;;;5013669;28;20077;-71
2021/10/16 08:14:17;;;;;;;4.82;2.60;;;;;;;;;;5010766;28;19959;-74
2021/10/16 08:16:44;;;;;;;4.28;2.33;;;;;;;;;;5012128;28;20042;-72
2021/10/16 08:19:12;;;;;;;5.75;2.15;;;;;;;;;;5012600;28;20410;-72
2021/10/16 08:21:39;;;;;;;4.15;2.42;;;;;;;;;;5012489;28;20679;-72
2021/10/16 08:24:07;;;;;;;5.63;2.47;;;;;;;;;;5011885;28;20052;-69
2021/10/16 08:26:34;;;;;;;7.88;2.72;;;;;;;;;;5028246;28;20043;-70
2021/10/16 08:29:02;;;;;;;2.80;1.90;;;;;;;;;;5033513;28;20407;-71
2021/10/16 08:31:29;;;;;;;4.45;2.35;;;;;;;;;;5038882;23;20526;-77
2021/10/16 08:33:57;;;;;;;5.03;1.83;;;;;;;;;;4976113;28;20093;-77
2021/10/16 08:36:25;;;;;;;4.22;2.05;;;;;;;;;;4994008;28;20038;-72
2021/10/16 08:38:55;;;;;;;6.60;2.42;;;;;;;;;;4977238;28;20058;-77
2021/10/16 08:41:22;;;;;;;7.28;2.35;;;;;;;;;;4993846;28;20129;-72
2021/10/16 08:43:51;;;;;;;3.85;2.50;;;;;;;;;;4993142;28;20132;-74
2021/10/16 08:46:19;;;;;;;3.65;2.90;;;;;;;;;;4993572;28;20475;-72
2021/10/16 08:48:49;;;;;;;5.70;2.85;;;;;;;;;;4994058;28;20046;-73
2021/10/16 08:51:16;;;;;;;4.47;2.88;;;;;;;;;;4994118;28;20038;-73
2021/10/16 08:53:44;;;;;;;8.27;2.90;;;;;;;;;;4993735;28;20483;-71
2021/10/16 08:56:13;;;;;;;7.20;2.42;;;;;;;;;;4976492;28;20053;-77
2021/10/16 08:58:41;;;;;;;5.20;2.75;;;;;;;;;;4976018;28;20050;-72
2021/10/16 09:01:10;;;;;;;7.82;2.85;;;;;;;;;;4976423;28;20785;-77
2021/10/16 09:03:51;;;;;;;3.45;2.35;;;;;;;;;;4993563;28;20105;-73
2021/10/16 09:06:26;;;;;;;4.15;2.10;;;;;;;;;;4993268;28;20467;-73
2021/10/16 09:09:01;;;;;;;4.30;2.38;;;;;;;;;;4992756;28;20496;-77
2021/10/16 09:11:35;;;;;;;7.78;2.22;;;;;;;;;;4975426;28;20050;-76
2021/10/16 09:14:23;;;;;;;4.00;2.30;;;;;;;;;;4975403;28;20069;-73
2021/10/16 09:16:55;;;;;;;6.70;2.58;;;;;;;;;;4993767;28;20069;-78
2021/10/16 09:19:31;;;;;;;3.28;2.10;;;;;;;;;;4993321;28;20066;-78
2021/10/16 09:22:01;;;;;;;9.43;2.60;;;;;;;;;;4992947;28;20085;-73
2021/10/16 09:24:30;;;;;;;4.38;2.10;;;;;;;;;;4993237;28;20088;-74
2021/10/16 09:27:11;;;;;;;5.57;2.40;;;;;;;;;;4992808;28;20046;-73
2021/10/16 09:29:43;;;;;;;7.75;2.10;;;;;;;;;;4975496;28;20422;-75
2021/10/16 09:32:13;;;;;;;2.93;1.80;;;;;;;;;;4953899;28;20055;-73
2021/10/16 09:34:42;;;;;;;6.32;2.03;;;;;;;;;;4954409;28;20178;-77
2021/10/16 09:37:10;;;;;;;2.97;1.90;;;;;;;;;;4954856;29;20043;-75
2021/10/16 09:39:39;;;;;;;3.95;2.03;;;;;;;;;;4954440;28;20043;-74
2021/10/16 09:42:09;;;;;;;3.90;2.15;;;;;;;;;;4953633;28;20047;-77
2021/10/16 09:44:38;;;;;;;3.30;1.83;;;;;;;;;;4937444;29;20039;-75
2021/10/16 09:47:05;;;;;;;6.60;1.73;;;;;;;;;;4937202;29;20413;-74
2021/10/16 09:49:44;;;;;;;3.97;2.10;;;;;;;;;;4953493;29;20044;-78
2021/10/16 09:52:12;;;;;;;5.10;2.20;;;;;;;;;;4954418;28;20098;-73
2021/10/16 09:54:41;;;;;;;4.28;2.17;;;;;;;;;;4954364;29;20109;-75
2021/10/16 09:57:11;;;;;;;4.97;2.63;;;;;;;;;;4953307;29;20428;-75
2021/10/16 09:59:40;;;;;;;6.45;2.65;;;;;;;;;;4953114;29;20060;-73
2021/10/16 10:02:09;;;;;;;3.35;2.17;;;;;;;;;;4952935;29;20047;-73
2021/10/16 10:04:41;;;;;;;4.15;2.45;;;;;;;;;;4953026;29;20055;-79
2021/10/16 10:07:11;;;;;;;4.55;1.90;;;;;;;;;;4954233;29;20078;-78
2021/10/16 10:09:40;;;;;;;7.05;2.15;;;;;;;;;;4952601;29;20394;-71
2021/10/16 10:12:10;;;;;;;5.10;2.30;;;;;;;;;;4952945;29;20044;-73
2021/10/16 10:14:41;;;;;;;3.38;2.03;;;;;;;;;;4954109;29;20043;-73
2021/10/16 10:17:10;;;;;;;5.38;2.40;;;;;;;;;;4952332;29;20055;-74
2021/10/16 10:19:41;;;;;;;5.00;2.28;;;;;;;;;;4952623;29;20082;-77
2021/10/16 10:22:12;;;;;;;4.53;2.30;;;;;;;;;;4956909;28;20155;-72
2021/10/16 10:24:40;;;;;;;4.03;2.33;;;;;;;;;;4955424;29;20397;-74
2021/10/16 10:27:10;;;;;;;4.30;1.90;;;;;;;;;;4957399;29;20055;-77
2021/10/16 10:29:43;;;;;;;4.07;2.67;;;;;;;;;;4955922;29;20059;-77
2021/10/16 10:32:24;;;;;;;3.20;1.92;;;;;;;;;;4940306;29;20058;-74
2021/10/16 10:34:52;;;;;;;;;;;;;;;;;;4955955;29;20079;-78
2021/10/16 10:37:40;;;;;;;4.50;2.20;;;;;;;;;;4956789;28;19922;-74
2021/10/16 10:40:22;;;;;;;3.65;1.83;;;;;;;;;;4956835;28;20123;-75
2021/10/16 10:42:59;;;;;;;4.25;1.95;;;;;;;;;;4957128;28;20073;-76
2021/10/16 10:45:28;;;;;;;5.03;2.03;;;;;;;;;;4956275;29;20081;-75
2021/10/16 10:47:58;;;;;;;5.35;2.10;;;;;;;;;;4957005;29;20516;-74
2021/10/16 10:50:46;;;;;;;10.07;2.20;;;;;;;;;;4955630;29;20392;-73
2021/10/16 10:53:25;;;;;;;4.78;2.17;;;;;;;;;;4957158;28;20044;-74
2021/10/16 10:55:52;;;;;;;3.83;2.30;;;;;;;;;;4957067;29;20043;-73
2021/10/16 10:58:23;;;;;;;3.67;2.15;;;;;;;;;;4955715;29;20071;-78
2021/10/16 11:00:52;;;;;;;6.68;2.40;;;;;;;;;;4956937;28;20389;-74
2021/10/16 11:03:29;;;;;;;6.55;2.38;;;;;;;;;;4955505;29;20142;-78
2021/10/16 11:06:17;;;;;;;4.95;2.03;;;;;;;;;;4956612;29;20047;-73
2021/10/16 11:08:48;;;;;;;3.85;2.00;;;;;;;;;;4956365;28;20040;-74
2021/10/16 11:11:18;;;;;;;5.07;1.92;;;;;;;;;;4939608;29;20048;-73
2021/10/16 11:13:49;;;;;;;6.60;2.30;;;;;;;;;;4956316;29;20131;-79
2021/10/16 11:16:17;;;;;;;3.80;2.00;;;;;;;;;;4956938;28;20050;-73
2021/10/16 11:18:57;;;;;;;5.90;2.03;;;;;;;;;;4954914;29;20069;-79
2021/10/16 11:21:25;;;;;;;7.90;2.33;;;;;;;;;;4956169;28;20047;-73
2021/10/16 11:23:53;;;;;;;4.53;2.00;;;;;;;;;;4955968;29;20070;-79
2021/10/16 11:26:21;;;;;;;4.65;2.13;;;;;;;;;;4955057;29;20050;-75
2021/10/16 11:28:48;;;;;;;13.35;2.20;;;;;;;;;;4939295;29;20043;-73
2021/10/16 11:31:23;;;;;;;5.25;2.50;;;;;;;;;;4954957;28;20389;-75
2021/10/16 11:33:51;;;;;;;5.60;2.15;;;;;;;;;;4955693;28;20043;-74
2021/10/16 11:36:27;;;;;;;3.50;1.67;;;;;;;;;;4955885;29;20385;-74
2021/10/16 11:38:55;;;;;;;4.25;2.10;;;;;;;;;;4955667;29;20473;-78
2021/10/16 11:41:24;;;;;;;5.53;2.38;;;;;;;;;;4955894;28;20127;-73
2021/10/16 11:43:55;;;;;;;5.63;2.47;;;;;;;;;;4954884;29;20131;-75
2021/10/16 11:46:24;;;;;;;4.33;2.10;;;;;;;;;;4956023;29;20417;-79
2021/10/16 11:48:52;;;;;;;5.32;2.10;;;;;;;;;;4954620;29;20051;-78
2021/10/16 11:51:20;;;;;;;7.95;2.50;;;;;;;;;;4955606;28;20039;-74
2021/10/16 11:53:48;;;;;;;5.75;2.38;;;;;;;;;;4956439;29;20039;-79
2021/10/16 11:56:17;;;;;;;6.53;2.40;;;;;;;;;;4955217;29;20043;-74
2021/10/16 11:58:46;;;;;;;5.95;2.30;;;;;;;;;;4955815;29;20039;-73
2021/10/16 12:01:14;;;;;;;4.60;1.92;;;;;;;;;;4955882;28;20074;-73
2021/10/16 12:03:43;;;;;;;3.83;2.00;;;;;;;;;;4954245;29;20121;-74
2021/10/16 12:06:11;;;;;;;5.57;2.00;;;;;;;;;;4953870;29;20051;-73
2021/10/16 12:08:50;;;;;;;7.75;1.95;;;;;;;;;;4955920;29;20061;-73
2021/10/16 12:11:18;;;;;;;4.93;1.95;;;;;;;;;;4954588;29;20054;-79
2021/10/16 12:13:56;;;;;;;10.70;2.22;;;;;;;;;;4939072;29;20054;-75
2021/10/16 12:16:33;;;;;;;4.70;2.28;;;;;;;;;;4955751;28;20053;-74
2021/10/16 12:19:01;;;;;;;6.53;2.40;;;;;;;;;;4955432;28;20046;-74
2021/10/16 12:21:41;;;;;;;4.45;1.75;;;;;;;;;;4955143;28;20047;-74
2021/10/16 12:24:13;;;;;;;4.65;2.05;;;;;;;;;;4955308;29;20065;-75
2021/10/16 12:26:43;;;;;;;5.30;1.77;;;;;;;;;;4954536;29;20047;-76
2021/10/16 12:29:31;;;;;;;3.88;1.98;;;;;;;;;;4954269;29;20071;-76
2021/10/16 12:31:59;;;;;;;6.00;2.55;;;;;;;;;;4988898;28;20089;-75
2021/10/16 12:34:28;;;;;;;6.97;1.80;;;;;;;;;;4989741;28;20057;-75
2021/10/16 12:36:56;;;;;;;3.45;1.90;;;;;;;;;;4970313;28;20042;-75
2021/10/16 12:39:25;;;;;;;4.40;2.20;;;;;;;;;;4976429;28;20145;-76
2021/10/16 12:42:08;;;;;;;5.47;2.38;;;;;;;;;;4977586;28;20042;-74
2021/10/16 12:44:38;;;;;;;8.82;2.20;;;;;;;;;;4976279;28;20042;-75
2021/10/16 12:47:15;;;;;;;4.38;2.10;;;;;;;;;;4975677;28;20376;-74
2021/10/16 12:49:48;;;;;;;4.47;1.98;;;;;;;;;;4993639;28;20117;-74
2021/10/16 12:52:27;;;;;;;4.63;2.00;;;;;;;;;;4976117;28;20133;-79
2021/10/16 12:54:59;;;;;;;5.75;2.20;;;;;;;;;;4976723;28;20038;-80
2021/10/16 12:57:27;;;;;;;6.68;1.90;;;;;;;;;;4994193;28;20126;-75
2021/10/16 13:00:02;;;;;;;8.93;2.40;;;;;;;;;;4993383;28;20053;-76
2021/10/16 13:02:29;;;;;;;5.10;1.90;;;;;;;;;;4993530;28;20584;-75
2021/10/16 13:04:57;;;;;;;4.45;1.90;;;;;;;;;;4976498;28;20038;-74
2021/10/16 13:07:25;;;;;;;11.35;2.10;;;;;;;;;;4993659;28;20101;-79
2021/10/16 13:09:52;;;;;;;6.45;2.30;;;;;;;;;;4993889;28;20495;-76
2021/10/16 13:12:20;;;;;;;4.38;1.75;;;;;;;;;;4976805;28;20042;-76
2021/10/16 13:14:51;;;;;;;5.93;2.08;;;;;;;;;;4993768;28;20049;-76
2021/10/16 13:17:18;;;;;;;4.80;1.80;;;;;;;;;;4976530;28;20049;-76
2021/10/16 13:19:46;;;;;;;5.22;2.13;;;;;;;;;;4976142;28;20492;-74
2021/10/16 13:22:14;;;;;;;8.30;2.50;;;;;;;;;;4975967;28;20520;-74
2021/10/16 13:24:42;;;;;;;7.20;2.30;;;;;;;;;;4976320;28;20050;-74
2021/10/16 13:27:13;;;;;;;7.47;1.88;;;;;;;;;;4993450;28;20492;-75
2021/10/16 13:29:40;;;;;;;8.38;2.05;;;;;;;;;;4993544;28;20044;-75
2021/10/16 13:32:25;;;;;;;4.30;2.03;;;;;;;;;;4993633;28;20081;-73
2021/10/16 13:34:53;;;;;;;9.68;2.50;;;;;;;;;;4976721;28;20052;-73
2021/10/16 13:37:22;;;;;;;5.22;2.17;;;;;;;;;;4975895;28;20034;-74
2021/10/16 13:39:51;;;;;;;5.38;2.03;;;;;;;;;;4975372;28;20120;-74
2021/10/16 13:42:19;;;;;;;4.50;1.65;;;;;;;;;;4975832;28;20555;-73
2021/10/16 13:44:47;;;;;;;5.93;1.60;;;;;;;;;;4993414;28;20121;-78
2021/10/16 13:47:15;;;;;;;4.53;1.98;;;;;;;;;;4975629;28;20045;-74
2021/10/16 13:49:42;;;;;;;5.47;2.13;;;;;;;;;;4975970;28;20056;-73
2021/10/16 13:52:12;;;;;;;7.40;2.08;;;;;;;;;;4993442;28;20534;-73
2021/10/16 13:54:40;;;;;;;4.50;1.88;;;;;;;;;;4993505;28;20053;-74
2021/10/16 13:57:08;;;;;;;6.60;1.90;;;;;;;;;;4996071;28;20125;-75
2021/10/16 13:59:43;;;;;;;5.05;1.85;;;;;;;;;;4979266;28;20077;-73
2021/10/16 14:02:13;;;;;;;2.72;1.90;;;;;;;;;;4979414;28;20050;-78
2021/10/16 14:04:41;;;;;;;6.03;2.05;;;;;;;;;;4979463;28;20041;-74
2021/10/16 14:07:08;;;;;;;3.17;1.80;;;;;;;;;;4993243;28;20474;-73
2021/10/16 14:09:36;;;;;;;3.90;1.90;;;;;;;;;;4994029;28;20070;-73
2021/10/16 14:12:04;;;;;;;7.80;1.98;;;;;;;;;;4976999;28;20043;-75
2021/10/16 14:14:32;;;;;;;3.40;1.55;;;;;;;;;;4976856;28;20061;-75
2021/10/16 14:16:59;;;;;;;6.15;1.90;;;;;;;;;;4977410;28;20093;-76
2021/10/16 14:19:27;;;;;;;5.35;1.75;;;;;;;;;;4977059;28;20034;-73
2021/10/16 14:21:54;;;;;;;4.72;1.83;;;;;;;;;;4994187;28;20055;-72
2021/10/16 14:24:22;;;;;;;3.15;1.70;;;;;;;;;;4976969;28;20619;-73
2021/10/16 14:26:50;;;;;;;6.05;3.30;;;;;;;;;;4994232;28;20072;-73
2021/10/16 14:29:18;;;;;;;3.28;1.60;;;;;;;;;;4994381;28;20042;-73
2021/10/16 14:31:46;;;;;;;7.10;2.00;;;;;;;;;;4973717;28;20133;-75
2021/10/16 14:34:15;;;;;;;4.35;1.80;;;;;;;;;;4977243;28;20046;-75
2021/10/16 14:36:43;;;;;;;5.85;2.00;;;;;;;;;;4994135;28;20042;-76
2021/10/16 14:39:10;;;;;;;2.67;1.80;;;;;;;;;;4994186;28;20484;-73
2021/10/16 14:41:37;;;;;;;5.78;2.22;;;;;;;;;;4994013;28;20042;-76
2021/10/16 14:44:05;;;;;;;7.07;1.83;;;;;;;;;;4976341;28;20085;-73
2021/10/16 14:46:33;;;;;;;2.90;1.77;;;;;;;;;;4993724;28;20050;-75
2021/10/16 14:49:00;;;;;;;3.75;1.77;;;;;;;;;;4976592;28;20043;-76
2021/10/16 14:51:28;;;;;;;4.68;1.95;;;;;;;;;;4993708;28;20534;-77
2021/10/16 14:53:55;;;;;;;3.00;1.83;;;;;;;;;;4993423;28;20042;-75
2021/10/16 14:56:23;;;;;;;7.82;2.15;;;;;;;;;;4993691;28;20097;-73
2021/10/16 14:58:51;;;;;;;5.80;1.70;;;;;;;;;;4993602;28;20054;-73